sensor_id;sensor_type;location;lat;lon;timestamp;temperature;humidity
18339;DHT22;9295;44.484;11.240;2022-12-29T00:00:21;10.20;99.90
18339;DHT22;9295;44.484;11.240;2022-12-29T00:02:49;10.10;99.90
18339;DHT22;9295;44.484;11.240;2022-12-29T00:05:18;10.10;99.90
18339;DHT22;9295;44.484;11.240;2022-12-29T00:07:48;10.10;99.90
18339;DHT22;9295;44.484;11.240;2022-12-29T00:10:16;10.10;99.90
18339;DHT22;9295;44.484;11.240;2022-12-29T00:12:45;10.10;99.90
18339;DHT22;9295;44.484;11.240;2022-12-29T00:15:31;10.10;99.90
18339;DHT22;9295;44.484;11.240;2022-12-29T00:18:07;10.20;99.90
18339;DHT22;9295;44.484;11.240;2022-12-29T00:20:38;10.10;99.90
18339;DHT22;9295;44.484;11.240;2022-12-29T00:23:25;10.10;99.90
18339;DHT22;9295;44.484;11.240;2022-12-29T00:26:13;10.10;99.90
18339;DHT22;9295;44.484;11.240;2022-12-29T00:28:59;10.10;99.90
18339;DHT22;9295;44.484;11.240;2022-12-29T00:31:45;10.10;99.90
18339;DHT22;9295;44.484;11.240;2022-12-29T00:34:33;10.10;99.90
18339;DHT22;9295;44.484;11.240;2022-12-29T00:37:30;10.10;99.90
18339;DHT22;9295;44.484;11.240;2022-12-29T00:40:14;10.00;99.90
18339;DHT22;9295;44.484;11.240;2022-12-29T00:43:00;10.10;99.90
18339;DHT22;9295;44.484;11.240;2022-12-29T00:45:46;10.10;99.90
18339;DHT22;9295;44.484;11.240;2022-12-29T00:48:15;10.10;99.90
18339;DHT22;9295;44.484;11.240;2022-12-29T00:51:04;10.10;99.90
18339;DHT22;9295;44.484;11.240;2022-12-29T00:53:35;10.10;99.90
18339;DHT22;9295;44.484;11.240;2022-12-29T00:56:05;10.10;99.90
18339;DHT22;9295;44.484;11.240;2022-12-29T00:58:33;10.10;99.90
18339;DHT22;9295;44.484;11.240;2022-12-29T01:01:05;10.10;99.90
18339;DHT22;9295;44.484;11.240;2022-12-29T01:03:35;10.10;99.90
18339;DHT22;9295;44.484;11.240;2022-12-29T01:06:06;10.10;99.90
18339;DHT22;9295;44.484;11.240;2022-12-29T01:08:37;10.10;99.90
18339;DHT22;9295;44.484;11.240;2022-12-29T01:11:09;10.10;99.90
18339;DHT22;9295;44.484;11.240;2022-12-29T01:13:39;10.10;99.90
18339;DHT22;9295;44.484;11.240;2022-12-29T01:16:11;10.10;99.90
18339;DHT22;9295;44.484;11.240;2022-12-29T01:18:41;10.20;99.90
18339;DHT22;9295;44.484;11.240;2022-12-29T01:21:12;10.20;99.90
18339;DHT22;9295;44.484;11.240;2022-12-29T01:23:41;10.20;99.90
18339;DHT22;9295;44.484;11.240;2022-12-29T01:26:12;10.20;99.90
18339;DHT22;9295;44.484;11.240;2022-12-29T01:28:40;10.20;99.90
18339;DHT22;9295;44.484;11.240;2022-12-29T01:31:12;10.20;99.90
18339;DHT22;9295;44.484;11.240;2022-12-29T01:33:42;10.20;99.90
18339;DHT22;9295;44.484;11.240;2022-12-29T01:36:15;10.20;99.90
18339;DHT22;9295;44.484;11.240;2022-12-29T01:38:44;10.20;99.90
18339;DHT22;9295;44.484;11.240;2022-12-29T01:41:15;10.20;99.90
18339;DHT22;9295;44.484;11.240;2022-12-29T01:43:48;10.20;99.90
18339;DHT22;9295;44.484;11.240;2022-12-29T01:46:24;10.20;99.90
18339;DHT22;9295;44.484;11.240;2022-12-29T01:48:57;10.20;99.90
18339;DHT22;9295;44.484;11.240;2022-12-29T01:51:26;10.20;99.90
18339;DHT22;9295;44.484;11.240;2022-12-29T01:53:58;10.20;99.90
18339;DHT22;9295;44.484;11.240;2022-12-29T01:56:29;10.20;99.90
18339;DHT22;9295;44.484;11.240;2022-12-29T01:59:02;10.20;99.90
18339;DHT22;9295;44.484;11.240;2022-12-29T02:01:31;10.20;99.90
18339;DHT22;9295;44.484;11.240;2022-12-29T02:04:01;10.20;99.90
18339;DHT22;9295;44.484;11.240;2022-12-29T02:06:34;10.10;99.90
18339;DHT22;9295;44.484;11.240;2022-12-29T02:09:03;10.20;99.90
18339;DHT22;9295;44.484;11.240;2022-12-29T02:11:35;10.20;99.90
18339;DHT22;9295;44.484;11.240;2022-12-29T02:14:09;10.20;99.90
18339;DHT22;9295;44.484;11.240;2022-12-29T02:16:53;10.10;99.90
18339;DHT22;9295;44.484;11.240;2022-12-29T02:22:32;10.20;99.90
18339;DHT22;9295;44.484;11.240;2022-12-29T02:25:31;10.20;99.90
18339;DHT22;9295;44.484;11.240;2022-12-29T02:28:27;10.10;99.90
18339;DHT22;9295;44.484;11.240;2022-12-29T02:31:07;10.10;99.90
18339;DHT22;9295;44.484;11.240;2022-12-29T02:33:50;10.10;99.90
18339;DHT22;9295;44.484;11.240;2022-12-29T02:36:35;10.10;99.90
18339;DHT22;9295;44.484;11.240;2022-12-29T02:39:13;10.10;99.90
18339;DHT22;9295;44.484;11.240;2022-12-29T02:41:54;10.10;99.90
18339;DHT22;9295;44.484;11.240;2022-12-29T02:44:32;10.10;99.90
18339;DHT22;9295;44.484;11.240;2022-12-29T02:47:09;10.20;99.90
18339;DHT22;9295;44.484;11.240;2022-12-29T02:49:46;10.10;99.90
18339;DHT22;9295;44.484;11.240;2022-12-29T02:52:20;10.20;99.90
18339;DHT22;9295;44.484;11.240;2022-12-29T02:54:52;10.20;99.90
18339;DHT22;9295;44.484;11.240;2022-12-29T02:57:29;10.10;99.90
18339;DHT22;9295;44.484;11.240;2022-12-29T03:00:04;10.10;99.90
18339;DHT22;9295;44.484;11.240;2022-12-29T03:03:06;10.10;99.90
18339;DHT22;9295;44.484;11.240;2022-12-29T03:05:57;10.10;99.90
18339;DHT22;9295;44.484;11.240;2022-12-29T03:08:34;10.10;99.90
18339;DHT22;9295;44.484;11.240;2022-12-29T03:11:09;10.10;99.90
18339;DHT22;9295;44.484;11.240;2022-12-29T03:14:03;10.10;99.90
18339;DHT22;9295;44.484;11.240;2022-12-29T03:16:55;10.10;99.90
18339;DHT22;9295;44.484;11.240;2022-12-29T03:19:32;10.00;99.90
18339;DHT22;9295;44.484;11.240;2022-12-29T03:22:04;10.00;99.90
18339;DHT22;9295;44.484;11.240;2022-12-29T03:25:15;10.00;99.90
18339;DHT22;9295;44.484;11.240;2022-12-29T03:27:50;9.90;99.90
18339;DHT22;9295;44.484;11.240;2022-12-29T03:30:20;10.00;99.90
18339;DHT22;9295;44.484;11.240;2022-12-29T03:32:55;10.00;99.90
18339;DHT22;9295;44.484;11.240;2022-12-29T03:35:31;10.00;99.90
18339;DHT22;9295;44.484;11.240;2022-12-29T03:38:06;10.00;99.90
18339;DHT22;9295;44.484;11.240;2022-12-29T03:40:38;10.00;99.90
18339;DHT22;9295;44.484;11.240;2022-12-29T03:43:10;10.10;99.90
18339;DHT22;9295;44.484;11.240;2022-12-29T03:45:40;10.10;99.90
18339;DHT22;9295;44.484;11.240;2022-12-29T03:48:09;10.10;99.90
18339;DHT22;9295;44.484;11.240;2022-12-29T03:50:41;10.10;99.90
18339;DHT22;9295;44.484;11.240;2022-12-29T03:53:10;10.10;99.90
18339;DHT22;9295;44.484;11.240;2022-12-29T03:55:39;10.00;99.90
18339;DHT22;9295;44.484;11.240;2022-12-29T03:58:07;10.10;99.90
18339;DHT22;9295;44.484;11.240;2022-12-29T04:00:59;10.10;99.90
18339;DHT22;9295;44.484;11.240;2022-12-29T04:03:30;10.10;99.90
18339;DHT22;9295;44.484;11.240;2022-12-29T04:06:00;10.10;99.90
18339;DHT22;9295;44.484;11.240;2022-12-29T04:08:36;10.10;99.90
18339;DHT22;9295;44.484;11.240;2022-12-29T04:11:05;10.10;99.90
18339;DHT22;9295;44.484;11.240;2022-12-29T04:13:34;10.10;99.90
18339;DHT22;9295;44.484;11.240;2022-12-29T04:16:03;10.10;99.90
18339;DHT22;9295;44.484;11.240;2022-12-29T04:18:32;10.00;99.90
18339;DHT22;9295;44.484;11.240;2022-12-29T04:21:02;10.00;99.90
18339;DHT22;9295;44.484;11.240;2022-12-29T04:23:35;10.00;99.90
18339;DHT22;9295;44.484;11.240;2022-12-29T04:26:07;10.10;99.90
18339;DHT22;9295;44.484;11.240;2022-12-29T04:28:58;10.00;99.90
18339;DHT22;9295;44.484;11.240;2022-12-29T04:31:41;10.00;99.90
18339;DHT22;9295;44.484;11.240;2022-12-29T04:34:13;10.00;99.90
18339;DHT22;9295;44.484;11.240;2022-12-29T04:36:48;10.00;99.90
18339;DHT22;9295;44.484;11.240;2022-12-29T04:39:17;10.00;99.90
18339;DHT22;9295;44.484;11.240;2022-12-29T04:41:46;10.00;99.90
18339;DHT22;9295;44.484;11.240;2022-12-29T04:44:19;10.00;99.90
18339;DHT22;9295;44.484;11.240;2022-12-29T04:47:14;10.00;99.90
18339;DHT22;9295;44.484;11.240;2022-12-29T04:49:55;10.00;99.90
18339;DHT22;9295;44.484;11.240;2022-12-29T04:52:44;10.00;99.90
18339;DHT22;9295;44.484;11.240;2022-12-29T04:55:14;10.10;99.90
18339;DHT22;9295;44.484;11.240;2022-12-29T04:57:44;10.10;99.90
18339;DHT22;9295;44.484;11.240;2022-12-29T05:00:17;10.10;99.90
18339;DHT22;9295;44.484;11.240;2022-12-29T05:02:47;10.00;99.90
18339;DHT22;9295;44.484;11.240;2022-12-29T05:05:18;10.00;99.90
18339;DHT22;9295;44.484;11.240;2022-12-29T05:07:51;10.00;99.90
18339;DHT22;9295;44.484;11.240;2022-12-29T05:10:20;10.00;99.90
18339;DHT22;9295;44.484;11.240;2022-12-29T05:12:51;9.90;99.90
18339;DHT22;9295;44.484;11.240;2022-12-29T05:15:20;9.90;99.90
18339;DHT22;9295;44.484;11.240;2022-12-29T05:17:49;9.90;99.90
18339;DHT22;9295;44.484;11.240;2022-12-29T05:20:18;10.00;99.90
18339;DHT22;9295;44.484;11.240;2022-12-29T05:22:47;10.00;99.90
18339;DHT22;9295;44.484;11.240;2022-12-29T05:25:17;10.00;99.90
18339;DHT22;9295;44.484;11.240;2022-12-29T05:27:58;10.00;99.90
18339;DHT22;9295;44.484;11.240;2022-12-29T05:30:40;10.00;99.90
18339;DHT22;9295;44.484;11.240;2022-12-29T05:33:08;10.00;99.90
18339;DHT22;9295;44.484;11.240;2022-12-29T05:35:42;10.00;99.90
18339;DHT22;9295;44.484;11.240;2022-12-29T05:38:12;10.00;99.90
18339;DHT22;9295;44.484;11.240;2022-12-29T05:40:43;10.00;99.90
18339;DHT22;9295;44.484;11.240;2022-12-29T05:43:29;10.00;99.90
18339;DHT22;9295;44.484;11.240;2022-12-29T05:46:21;10.00;99.90
18339;DHT22;9295;44.484;11.240;2022-12-29T05:48:58;10.00;99.90
18339;DHT22;9295;44.484;11.240;2022-12-29T05:51:37;10.10;99.90
18339;DHT22;9295;44.484;11.240;2022-12-29T05:54:07;10.00;99.90
18339;DHT22;9295;44.484;11.240;2022-12-29T05:56:38;10.00;99.90
18339;DHT22;9295;44.484;11.240;2022-12-29T05:59:07;10.00;99.90
18339;DHT22;9295;44.484;11.240;2022-12-29T06:01:36;10.00;99.90
18339;DHT22;9295;44.484;11.240;2022-12-29T06:04:05;10.00;99.90
18339;DHT22;9295;44.484;11.240;2022-12-29T06:06:37;10.00;99.90
18339;DHT22;9295;44.484;11.240;2022-12-29T06:09:10;10.00;99.90
18339;DHT22;9295;44.484;11.240;2022-12-29T06:11:40;10.00;99.90
18339;DHT22;9295;44.484;11.240;2022-12-29T06:14:10;10.00;99.90
18339;DHT22;9295;44.484;11.240;2022-12-29T06:16:38;10.00;99.90
18339;DHT22;9295;44.484;11.240;2022-12-29T06:19:10;10.00;99.90
18339;DHT22;9295;44.484;11.240;2022-12-29T06:21:40;10.00;99.90
18339;DHT22;9295;44.484;11.240;2022-12-29T06:24:09;10.00;99.90
18339;DHT22;9295;44.484;11.240;2022-12-29T06:26:40;10.00;99.90
18339;DHT22;9295;44.484;11.240;2022-12-29T06:29:09;10.00;99.90
18339;DHT22;9295;44.484;11.240;2022-12-29T06:31:38;10.00;99.90
18339;DHT22;9295;44.484;11.240;2022-12-29T06:34:09;10.00;99.90
18339;DHT22;9295;44.484;11.240;2022-12-29T06:36:38;10.00;99.90
18339;DHT22;9295;44.484;11.240;2022-12-29T06:39:07;10.00;99.90
18339;DHT22;9295;44.484;11.240;2022-12-29T06:41:35;10.00;99.90
18339;DHT22;9295;44.484;11.240;2022-12-29T06:44:40;10.00;99.90
18339;DHT22;9295;44.484;11.240;2022-12-29T06:47:09;10.00;99.90
18339;DHT22;9295;44.484;11.240;2022-12-29T06:49:38;10.00;99.90
18339;DHT22;9295;44.484;11.240;2022-12-29T06:52:06;10.00;99.90
18339;DHT22;9295;44.484;11.240;2022-12-29T06:54:39;10.00;99.90
18339;DHT22;9295;44.484;11.240;2022-12-29T06:57:08;10.00;99.90
18339;DHT22;9295;44.484;11.240;2022-12-29T06:59:36;10.00;99.90
18339;DHT22;9295;44.484;11.240;2022-12-29T07:02:08;10.00;99.90
18339;DHT22;9295;44.484;11.240;2022-12-29T07:04:37;10.00;99.90
18339;DHT22;9295;44.484;11.240;2022-12-29T07:07:06;10.00;99.90
18339;DHT22;9295;44.484;11.240;2022-12-29T07:09:34;10.00;99.90
18339;DHT22;9295;44.484;11.240;2022-12-29T07:12:03;10.00;99.90
18339;DHT22;9295;44.484;11.240;2022-12-29T07:14:35;10.00;99.90
18339;DHT22;9295;44.484;11.240;2022-12-29T07:17:10;10.00;99.90
18339;DHT22;9295;44.484;11.240;2022-12-29T07:19:39;10.00;99.90
18339;DHT22;9295;44.484;11.240;2022-12-29T07:22:08;10.00;99.90
18339;DHT22;9295;44.484;11.240;2022-12-29T07:24:37;10.00;99.90
18339;DHT22;9295;44.484;11.240;2022-12-29T07:27:06;10.00;99.90
18339;DHT22;9295;44.484;11.240;2022-12-29T07:29:36;10.00;99.90
18339;DHT22;9295;44.484;11.240;2022-12-29T07:32:05;10.00;99.90
18339;DHT22;9295;44.484;11.240;2022-12-29T07:34:35;10.00;99.90
18339;DHT22;9295;44.484;11.240;2022-12-29T07:37:06;10.00;99.90
18339;DHT22;9295;44.484;11.240;2022-12-29T07:39:35;10.00;99.90
18339;DHT22;9295;44.484;11.240;2022-12-29T07:42:04;10.00;99.90
18339;DHT22;9295;44.484;11.240;2022-12-29T07:44:44;10.10;99.90
18339;DHT22;9295;44.484;11.240;2022-12-29T07:47:25;10.10;99.90
18339;DHT22;9295;44.484;11.240;2022-12-29T07:49:55;10.10;99.90
18339;DHT22;9295;44.484;11.240;2022-12-29T07:52:24;10.10;99.90
18339;DHT22;9295;44.484;11.240;2022-12-29T07:54:52;10.10;99.90
18339;DHT22;9295;44.484;11.240;2022-12-29T07:57:21;10.10;99.90
18339;DHT22;9295;44.484;11.240;2022-12-29T07:59:58;10.10;99.90
18339;DHT22;9295;44.484;11.240;2022-12-29T08:02:27;10.20;99.90
18339;DHT22;9295;44.484;11.240;2022-12-29T08:04:58;10.20;99.90
18339;DHT22;9295;44.484;11.240;2022-12-29T08:07:26;10.20;99.90
18339;DHT22;9295;44.484;11.240;2022-12-29T08:09:55;10.20;99.90
18339;DHT22;9295;44.484;11.240;2022-12-29T08:12:24;10.30;99.90
18339;DHT22;9295;44.484;11.240;2022-12-29T08:14:52;10.20;99.90
18339;DHT22;9295;44.484;11.240;2022-12-29T08:17:23;10.20;99.90
18339;DHT22;9295;44.484;11.240;2022-12-29T08:19:52;10.20;99.90
18339;DHT22;9295;44.484;11.240;2022-12-29T08:22:22;10.20;99.90
18339;DHT22;9295;44.484;11.240;2022-12-29T08:24:51;10.20;99.90
18339;DHT22;9295;44.484;11.240;2022-12-29T08:27:19;10.10;99.90
18339;DHT22;9295;44.484;11.240;2022-12-29T08:29:48;10.10;99.90
18339;DHT22;9295;44.484;11.240;2022-12-29T08:32:17;10.20;99.90
18339;DHT22;9295;44.484;11.240;2022-12-29T08:34:46;10.20;99.90
18339;DHT22;9295;44.484;11.240;2022-12-29T08:37:16;10.20;99.90
18339;DHT22;9295;44.484;11.240;2022-12-29T08:39:55;10.20;99.90
18339;DHT22;9295;44.484;11.240;2022-12-29T08:42:26;10.30;99.90
18339;DHT22;9295;44.484;11.240;2022-12-29T08:44:58;10.40;99.90
18339;DHT22;9295;44.484;11.240;2022-12-29T08:47:28;10.30;99.90
18339;DHT22;9295;44.484;11.240;2022-12-29T08:49:56;10.30;99.90
18339;DHT22;9295;44.484;11.240;2022-12-29T08:52:25;10.30;99.90
18339;DHT22;9295;44.484;11.240;2022-12-29T08:54:55;10.30;99.90
18339;DHT22;9295;44.484;11.240;2022-12-29T08:57:24;10.40;99.90
18339;DHT22;9295;44.484;11.240;2022-12-29T09:00:11;10.40;99.90
18339;DHT22;9295;44.484;11.240;2022-12-29T09:02:42;10.50;99.90
18339;DHT22;9295;44.484;11.240;2022-12-29T09:05:13;10.50;99.90
18339;DHT22;9295;44.484;11.240;2022-12-29T09:07:42;10.50;99.90
18339;DHT22;9295;44.484;11.240;2022-12-29T09:10:12;10.50;99.90
18339;DHT22;9295;44.484;11.240;2022-12-29T09:12:43;10.50;99.90
18339;DHT22;9295;44.484;11.240;2022-12-29T09:15:11;10.50;99.90
18339;DHT22;9295;44.484;11.240;2022-12-29T09:17:40;10.50;99.90
18339;DHT22;9295;44.484;11.240;2022-12-29T09:20:09;10.50;99.90
18339;DHT22;9295;44.484;11.240;2022-12-29T09:22:38;10.50;99.90
18339;DHT22;9295;44.484;11.240;2022-12-29T09:25:08;10.50;99.90
18339;DHT22;9295;44.484;11.240;2022-12-29T09:27:38;10.40;99.90
18339;DHT22;9295;44.484;11.240;2022-12-29T09:30:11;10.40;99.90
18339;DHT22;9295;44.484;11.240;2022-12-29T09:32:41;10.40;99.90
18339;DHT22;9295;44.484;11.240;2022-12-29T09:35:13;10.50;99.90
18339;DHT22;9295;44.484;11.240;2022-12-29T09:37:42;10.60;99.90
18339;DHT22;9295;44.484;11.240;2022-12-29T09:40:26;10.60;99.90
18339;DHT22;9295;44.484;11.240;2022-12-29T09:43:22;10.60;99.90
18339;DHT22;9295;44.484;11.240;2022-12-29T09:45:55;10.70;99.90
18339;DHT22;9295;44.484;11.240;2022-12-29T09:48:28;10.70;99.90
18339;DHT22;9295;44.484;11.240;2022-12-29T09:51:00;10.60;99.90
18339;DHT22;9295;44.484;11.240;2022-12-29T09:53:33;10.60;99.90
18339;DHT22;9295;44.484;11.240;2022-12-29T09:56:05;10.70;99.90
18339;DHT22;9295;44.484;11.240;2022-12-29T09:58:44;10.70;99.90
18339;DHT22;9295;44.484;11.240;2022-12-29T10:01:23;10.70;99.90
18339;DHT22;9295;44.484;11.240;2022-12-29T10:03:56;10.80;99.90
18339;DHT22;9295;44.484;11.240;2022-12-29T10:06:27;10.80;99.90
18339;DHT22;9295;44.484;11.240;2022-12-29T10:09:03;10.90;99.90
18339;DHT22;9295;44.484;11.240;2022-12-29T10:11:53;10.90;99.90
18339;DHT22;9295;44.484;11.240;2022-12-29T10:14:35;10.90;99.90
18339;DHT22;9295;44.484;11.240;2022-12-29T10:17:22;10.80;99.90
18339;DHT22;9295;44.484;11.240;2022-12-29T10:20:24;10.70;99.90
18339;DHT22;9295;44.484;11.240;2022-12-29T10:23:13;10.70;99.90
18339;DHT22;9295;44.484;11.240;2022-12-29T10:25:45;10.70;99.90
18339;DHT22;9295;44.484;11.240;2022-12-29T10:28:19;10.70;99.90
18339;DHT22;9295;44.484;11.240;2022-12-29T10:30:51;10.80;99.90
18339;DHT22;9295;44.484;11.240;2022-12-29T10:33:24;10.80;99.90
18339;DHT22;9295;44.484;11.240;2022-12-29T10:35:54;10.80;99.90
18339;DHT22;9295;44.484;11.240;2022-12-29T10:38:26;10.80;99.90
18339;DHT22;9295;44.484;11.240;2022-12-29T10:41:00;10.90;99.90
18339;DHT22;9295;44.484;11.240;2022-12-29T10:43:31;10.90;99.90
18339;DHT22;9295;44.484;11.240;2022-12-29T10:46:05;10.80;99.90
18339;DHT22;9295;44.484;11.240;2022-12-29T10:48:38;10.90;99.90
18339;DHT22;9295;44.484;11.240;2022-12-29T10:51:08;10.90;99.90
18339;DHT22;9295;44.484;11.240;2022-12-29T10:53:48;10.90;99.90
18339;DHT22;9295;44.484;11.240;2022-12-29T10:56:28;10.80;99.90
18339;DHT22;9295;44.484;11.240;2022-12-29T10:59:00;10.60;99.90
18339;DHT22;9295;44.484;11.240;2022-12-29T11:01:37;10.40;99.90
18339;DHT22;9295;44.484;11.240;2022-12-29T11:04:24;10.40;99.90
18339;DHT22;9295;44.484;11.240;2022-12-29T11:06:55;10.30;99.90
18339;DHT22;9295;44.484;11.240;2022-12-29T11:09:28;10.40;99.90
18339;DHT22;9295;44.484;11.240;2022-12-29T11:12:22;10.60;99.90
18339;DHT22;9295;44.484;11.240;2022-12-29T11:15:12;10.70;99.90
18339;DHT22;9295;44.484;11.240;2022-12-29T11:17:48;10.80;99.90
18339;DHT22;9295;44.484;11.240;2022-12-29T11:20:31;10.80;99.90
18339;DHT22;9295;44.484;11.240;2022-12-29T11:23:01;10.50;99.90
18339;DHT22;9295;44.484;11.240;2022-12-29T11:25:30;10.60;99.90
18339;DHT22;9295;44.484;11.240;2022-12-29T11:28:01;10.70;99.90
18339;DHT22;9295;44.484;11.240;2022-12-29T11:30:32;10.80;99.90
18339;DHT22;9295;44.484;11.240;2022-12-29T11:33:03;10.70;99.90
18339;DHT22;9295;44.484;11.240;2022-12-29T11:35:35;10.80;99.90
18339;DHT22;9295;44.484;11.240;2022-12-29T11:38:16;10.50;99.90
18339;DHT22;9295;44.484;11.240;2022-12-29T11:40:48;10.50;99.90
18339;DHT22;9295;44.484;11.240;2022-12-29T11:43:21;10.60;99.90
18339;DHT22;9295;44.484;11.240;2022-12-29T11:45:52;10.60;99.90
18339;DHT22;9295;44.484;11.240;2022-12-29T11:48:28;10.70;99.90
18339;DHT22;9295;44.484;11.240;2022-12-29T11:50:58;10.70;99.90
18339;DHT22;9295;44.484;11.240;2022-12-29T11:53:36;10.80;99.90
18339;DHT22;9295;44.484;11.240;2022-12-29T11:56:07;10.60;99.90
18339;DHT22;9295;44.484;11.240;2022-12-29T11:58:37;10.60;99.90
18339;DHT22;9295;44.484;11.240;2022-12-29T12:01:11;10.70;99.90
18339;DHT22;9295;44.484;11.240;2022-12-29T12:03:47;10.70;99.90
18339;DHT22;9295;44.484;11.240;2022-12-29T12:06:20;10.70;99.90
18339;DHT22;9295;44.484;11.240;2022-12-29T12:08:54;10.60;99.90
18339;DHT22;9295;44.484;11.240;2022-12-29T12:11:26;10.50;99.90
18339;DHT22;9295;44.484;11.240;2022-12-29T12:14:11;10.40;99.90
18339;DHT22;9295;44.484;11.240;2022-12-29T12:17:11;10.40;99.90
18339;DHT22;9295;44.484;11.240;2022-12-29T12:19:46;10.60;99.90
18339;DHT22;9295;44.484;11.240;2022-12-29T12:22:24;10.70;99.90
18339;DHT22;9295;44.484;11.240;2022-12-29T12:24:59;10.70;99.90
18339;DHT22;9295;44.484;11.240;2022-12-29T12:27:33;10.50;99.90
18339;DHT22;9295;44.484;11.240;2022-12-29T12:30:13;10.50;99.90
18339;DHT22;9295;44.484;11.240;2022-12-29T12:32:46;10.60;99.90
18339;DHT22;9295;44.484;11.240;2022-12-29T12:35:25;10.80;99.90
18339;DHT22;9295;44.484;11.240;2022-12-29T12:38:09;11.00;99.90
18339;DHT22;9295;44.484;11.240;2022-12-29T12:40:58;10.90;99.90
18339;DHT22;9295;44.484;11.240;2022-12-29T12:43:38;10.80;99.90
18339;DHT22;9295;44.484;11.240;2022-12-29T12:49:21;10.90;99.90
18339;DHT22;9295;44.484;11.240;2022-12-29T12:52:03;10.90;99.90
18339;DHT22;9295;44.484;11.240;2022-12-29T12:54:47;10.70;99.90
18339;DHT22;9295;44.484;11.240;2022-12-29T12:57:27;10.70;99.90
18339;DHT22;9295;44.484;11.240;2022-12-29T13:00:02;10.80;99.90
18339;DHT22;9295;44.484;11.240;2022-12-29T13:02:43;10.90;99.90
18339;DHT22;9295;44.484;11.240;2022-12-29T13:05:34;11.00;99.90
18339;DHT22;9295;44.484;11.240;2022-12-29T13:08:23;10.80;99.90
18339;DHT22;9295;44.484;11.240;2022-12-29T13:10:58;10.70;99.90
18339;DHT22;9295;44.484;11.240;2022-12-29T13:13:47;10.50;99.90
18339;DHT22;9295;44.484;11.240;2022-12-29T13:16:26;10.70;99.90
18339;DHT22;9295;44.484;11.240;2022-12-29T13:18:59;10.70;99.90
18339;DHT22;9295;44.484;11.240;2022-12-29T13:21:40;10.70;99.90
18339;DHT22;9295;44.484;11.240;2022-12-29T13:24:31;10.80;99.90
18339;DHT22;9295;44.484;11.240;2022-12-29T13:27:10;10.80;99.90
18339;DHT22;9295;44.484;11.240;2022-12-29T13:29:45;10.80;99.90
18339;DHT22;9295;44.484;11.240;2022-12-29T13:32:26;10.80;99.90
18339;DHT22;9295;44.484;11.240;2022-12-29T13:35:10;10.60;99.90
18339;DHT22;9295;44.484;11.240;2022-12-29T13:37:48;10.50;99.90
18339;DHT22;9295;44.484;11.240;2022-12-29T13:40:23;10.60;99.90
18339;DHT22;9295;44.484;11.240;2022-12-29T13:42:54;10.70;99.90
18339;DHT22;9295;44.484;11.240;2022-12-29T13:45:26;10.80;99.90
18339;DHT22;9295;44.484;11.240;2022-12-29T13:48:01;10.80;99.90
18339;DHT22;9295;44.484;11.240;2022-12-29T13:50:36;10.90;99.90
18339;DHT22;9295;44.484;11.240;2022-12-29T13:53:15;10.80;99.90
18339;DHT22;9295;44.484;11.240;2022-12-29T13:55:53;10.80;99.90
18339;DHT22;9295;44.484;11.240;2022-12-29T13:58:27;10.60;99.90
18339;DHT22;9295;44.484;11.240;2022-12-29T14:01:07;10.40;99.90
18339;DHT22;9295;44.484;11.240;2022-12-29T14:03:48;10.50;99.90
18339;DHT22;9295;44.484;11.240;2022-12-29T14:06:23;10.60;99.90
18339;DHT22;9295;44.484;11.240;2022-12-29T14:08:56;10.60;99.90
18339;DHT22;9295;44.484;11.240;2022-12-29T14:11:31;10.70;99.90
18339;DHT22;9295;44.484;11.240;2022-12-29T14:14:12;10.70;99.90
18339;DHT22;9295;44.484;11.240;2022-12-29T14:16:41;10.70;99.90
18339;DHT22;9295;44.484;11.240;2022-12-29T14:19:13;10.70;99.90
18339;DHT22;9295;44.484;11.240;2022-12-29T14:21:57;10.40;99.90
18339;DHT22;9295;44.484;11.240;2022-12-29T14:24:40;10.20;99.90
18339;DHT22;9295;44.484;11.240;2022-12-29T14:27:50;10.20;99.90
18339;DHT22;9295;44.484;11.240;2022-12-29T14:30:48;10.30;99.90
18339;DHT22;9295;44.484;11.240;2022-12-29T14:33:17;10.50;99.90
18339;DHT22;9295;44.484;11.240;2022-12-29T14:35:47;10.50;99.90
18339;DHT22;9295;44.484;11.240;2022-12-29T14:38:30;10.60;99.90
18339;DHT22;9295;44.484;11.240;2022-12-29T14:41:24;10.60;99.90
18339;DHT22;9295;44.484;11.240;2022-12-29T14:44:01;10.50;99.90
18339;DHT22;9295;44.484;11.240;2022-12-29T14:46:49;10.30;99.90
18339;DHT22;9295;44.484;11.240;2022-12-29T14:49:29;10.50;99.90
18339;DHT22;9295;44.484;11.240;2022-12-29T14:52:16;10.50;99.90
18339;DHT22;9295;44.484;11.240;2022-12-29T14:54:53;10.60;99.90
18339;DHT22;9295;44.484;11.240;2022-12-29T14:57:39;10.50;99.90
18339;DHT22;9295;44.484;11.240;2022-12-29T15:00:18;10.30;99.90
18339;DHT22;9295;44.484;11.240;2022-12-29T15:02:54;10.20;99.90
18339;DHT22;9295;44.484;11.240;2022-12-29T15:05:36;10.20;99.90
18339;DHT22;9295;44.484;11.240;2022-12-29T15:08:06;10.20;99.90
18339;DHT22;9295;44.484;11.240;2022-12-29T15:10:39;10.30;99.90
18339;DHT22;9295;44.484;11.240;2022-12-29T15:13:15;10.50;99.90
18339;DHT22;9295;44.484;11.240;2022-12-29T15:15:45;10.50;99.90
18339;DHT22;9295;44.484;11.240;2022-12-29T15:18:22;10.40;99.90
18339;DHT22;9295;44.484;11.240;2022-12-29T15:20:54;10.40;99.90
18339;DHT22;9295;44.484;11.240;2022-12-29T15:23:26;10.40;99.90
18339;DHT22;9295;44.484;11.240;2022-12-29T15:25:56;10.40;99.90
18339;DHT22;9295;44.484;11.240;2022-12-29T15:28:27;10.40;99.90
18339;DHT22;9295;44.484;11.240;2022-12-29T15:31:03;10.40;99.90
18339;DHT22;9295;44.484;11.240;2022-12-29T15:33:38;10.40;99.90
18339;DHT22;9295;44.484;11.240;2022-12-29T15:36:13;10.40;99.90
18339;DHT22;9295;44.484;11.240;2022-12-29T15:38:42;10.50;99.90
18339;DHT22;9295;44.484;11.240;2022-12-29T15:41:22;10.50;99.90
18339;DHT22;9295;44.484;11.240;2022-12-29T15:43:58;10.50;99.90
18339;DHT22;9295;44.484;11.240;2022-12-29T15:46:31;10.20;99.90
18339;DHT22;9295;44.484;11.240;2022-12-29T15:49:05;9.80;99.90
18339;DHT22;9295;44.484;11.240;2022-12-29T15:51:37;9.60;99.90
18339;DHT22;9295;44.484;11.240;2022-12-29T15:54:17;9.80;99.90
18339;DHT22;9295;44.484;11.240;2022-12-29T15:56:46;10.00;99.90
18339;DHT22;9295;44.484;11.240;2022-12-29T15:59:25;10.10;99.90
18339;DHT22;9295;44.484;11.240;2022-12-29T16:01:56;10.20;99.90
18339;DHT22;9295;44.484;11.240;2022-12-29T16:04:28;10.20;99.90
18339;DHT22;9295;44.484;11.240;2022-12-29T16:06:58;10.20;99.90
18339;DHT22;9295;44.484;11.240;2022-12-29T16:09:32;10.20;99.90
18339;DHT22;9295;44.484;11.240;2022-12-29T16:12:03;10.20;99.90
18339;DHT22;9295;44.484;11.240;2022-12-29T16:14:37;10.20;99.90
18339;DHT22;9295;44.484;11.240;2022-12-29T16:17:13;10.20;99.90
18339;DHT22;9295;44.484;11.240;2022-12-29T16:19:49;10.20;99.90
18339;DHT22;9295;44.484;11.240;2022-12-29T16:22:25;10.30;99.90
18339;DHT22;9295;44.484;11.240;2022-12-29T16:24:58;10.30;99.90